Current Weather

Jacqueline Cochran Rgnl

Palm Springs, California (KTRM)

Report from: Sunday, June 26, 2022 9:52 AM PDT
Current time: Sunday, June 26, 2022 11:02 AM PDT

Nearby weather
Weather history
Weather forecast

Temperature33.9°C (93.0°F)
Heat index36.9°C (98.4°F)
Dew point20.6°C (69.1°F)
Winds 10 kts (5.1 m/s, 11.5 mph) Southeast (130°)
Visibility10 mi. (16.1 km)
Clouds Sky clear
Altimeter29.91 in.Hg (1013 mB)
Relative humidity46 %
Density altitude2,490 ft. (759 m)
Sea-level pressure101.3 kPa (1013 mB, 29.92 in.Hg)
Remarks Fully automated report
Automated weather observing station with precipitation discriminator
Flight conditions Visual Meteorological Conditions
Raw dataKTRM 261652Z AUTO 13010KT 10SM CLR 34/21 A2991 RMK AO2 SLP132 T03390206
An error has occurred. This application may no longer respond until reloaded. Reload 🗙